Time;durP1;ratioP1;P1;durP2;ratioP2;P2;SDS_P1;SDS_P2;PMS_P1;PMS_P2;Temp;Humidity;BMP_temperature;BMP_pressure;BME280_temperature;BME280_humidity;BME280_pressure;Samples;Min_cycle;Max_cycle;Signal;HPM_P1;HPM_P2
2023/04/22 00:01:37;;;;;;;14.73;10.45;;;10.80;1.00;;;;;;5061012;28;20047;-83
2023/04/22 00:04:03;;;;;;;15.52;9.13;;;10.90;1.00;;;;;;5046302;28;20036;-85
2023/04/22 00:06:30;;;;;;;15.52;10.15;;;10.70;1.00;;;;;;5074249;28;20040;-84
2023/04/22 00:08:56;;;;;;;17.00;9.65;;;10.60;1.00;;;;;;5060957;28;20095;-84
2023/04/22 00:11:21;;;;;;;14.30;9.68;;;10.50;1.00;;;;;;5088878;28;20090;-84
2023/04/22 00:13:47;;;;;;;15.40;9.90;;;10.50;1.00;;;;;;5070581;28;20054;-85
2023/04/22 00:16:13;;;;;;;14.55;10.35;;;10.20;1.00;;;;;;5048400;28;20052;-84
2023/04/22 00:18:38;;;;;;;13.60;9.73;;;10.20;1.00;;;;;;5057571;28;20039;-84
2023/04/22 00:21:06;;;;;;;16.90;9.80;;;10.00;1.00;;;;;;5058167;28;20101;-84
2023/04/22 00:23:32;;;;;;;15.52;9.85;;;10.00;1.00;;;;;;5049115;28;20046;-83
2023/04/22 00:25:58;;;;;;;16.77;9.88;;;9.60;1.00;;;;;;5058705;28;20040;-84
2023/04/22 00:28:24;;;;;;;13.85;9.23;;;9.90;1.00;;;;;;5057614;28;20055;-83
2023/04/22 00:30:50;;;;;;;15.02;9.95;;;9.70;1.00;;;;;;5058191;28;20048;-84
2023/04/22 00:33:15;;;;;;;16.85;10.23;;;9.70;1.00;;;;;;5054508;28;20440;-83
2023/04/22 00:35:41;;;;;;;15.13;11.10;;;9.70;1.00;;;;;;5050400;28;20086;-83
2023/04/22 00:38:07;;;;;;;17.02;10.77;;;9.60;1.00;;;;;;5061943;28;20043;-84
2023/04/22 00:40:32;;;;;;;18.35;12.02;;;9.60;1.00;;;;;;5086715;28;20465;-84
2023/04/22 00:42:59;;;;;;;16.13;11.38;;;9.80;1.00;;;;;;5058846;28;20430;-84
2023/04/22 00:45:25;;;;;;;19.60;10.93;;;9.70;1.00;;;;;;5074060;28;20043;-84
2023/04/22 00:47:54;;;;;;;19.20;11.93;;;9.60;1.00;;;;;;5060511;28;20486;-84
2023/04/22 00:50:20;;;;;;;19.25;11.95;;;9.60;1.00;;;;;;5058302;28;20048;-84
2023/04/22 00:52:45;;;;;;;18.38;11.82;;;9.50;1.00;;;;;;5069469;28;20133;-83
2023/04/22 00:55:11;;;;;;;16.27;11.07;;;9.40;1.00;;;;;;5040402;28;20044;-83
2023/04/22 00:57:38;;;;;;;18.80;12.02;;;9.50;1.00;;;;;;5066117;28;20116;-83
2023/04/22 01:00:05;;;;;;;18.58;12.48;;;9.70;2.30;;;;;;5062305;28;20056;-84
2023/04/22 01:02:31;;;;;;;16.25;11.05;;;9.40;6.50;;;;;;5060503;28;20044;-83
2023/04/22 01:04:58;;;;;;;13.73;9.95;;;9.50;12.90;;;;;;5053436;28;20056;-84
2023/04/22 01:07:24;;;;;;;17.58;9.73;;;9.30;10.50;;;;;;5069168;28;20512;-83
2023/04/22 01:09:50;;;;;;;17.02;9.40;;;9.30;3.50;;;;;;5056279;28;20131;-82
2023/04/22 01:12:16;;;;;;;15.40;9.90;;;9.30;1.90;;;;;;5046711;28;20048;-87
2023/04/22 01:14:41;;;;;;;14.38;9.93;;;9.30;3.60;;;;;;5039913;28;20047;-83
2023/04/22 01:17:09;;;;;;;16.80;10.15;;;9.40;6.50;;;;;;5061978;28;20097;-83
2023/04/22 01:19:35;;;;;;;15.30;10.75;;;9.20;10.50;;;;;;5051298;28;20138;-84
2023/04/22 01:22:01;;;;;;;16.15;10.10;;;9.30;14.20;;;;;;5073609;28;20111;-83
2023/04/22 01:24:27;;;;;;;13.20;10.35;;;9.40;17.40;;;;;;5049122;28;20048;-83
2023/04/22 01:26:53;;;;;;;15.75;10.60;;;9.30;18.00;;;;;;5046796;28;20063;-84
2023/04/22 01:29:19;;;;;;;13.68;9.70;;;9.20;16.90;;;;;;5043141;28;20056;-88
2023/04/22 01:31:45;;;;;;;14.52;10.48;;;9.20;14.20;;;;;;5054553;28;20048;-83
2023/04/22 01:34:11;;;;;;;18.40;11.98;;;9.10;18.60;;;;;;5057170;28;20052;-85
2023/04/22 01:36:37;;;;;;;17.05;11.23;;;9.00;19.20;;;;;;5022875;28;20040;-84
2023/04/22 01:39:03;;;;;;;22.15;12.10;;;9.10;26.80;;;;;;5067032;28;20083;-84
2023/04/22 01:41:29;;;;;;;19.60;12.32;;;9.10;28.80;;;;;;5056198;28;20050;-84
2023/04/22 01:43:57;;;;;;;18.80;12.43;;;9.20;31.60;;;;;;5067295;28;20470;-85
2023/04/22 01:46:22;;;;;;;20.27;11.70;;;9.00;34.50;;;;;;5072433;28;20040;-87
2023/04/22 01:48:51;;;;;;;22.90;13.15;;;9.00;39.10;;;;;;5029090;28;20741;-84
2023/04/22 01:51:19;;;;;;;20.27;12.77;;;9.00;36.30;;;;;;5072515;28;20584;-84
2023/04/22 01:53:46;;;;;;;16.77;11.60;;;9.00;42.50;;;;;;5056460;28;20066;-85
2023/04/22 01:56:11;;;;;;;19.90;12.43;;;9.20;49.20;;;;;;5072810;28;20048;-83
2023/04/22 01:58:39;;;;;;;20.95;12.38;;;8.90;50.20;;;;;;5054194;28;20050;-84
2023/04/22 02:01:05;;;;;;;20.80;12.20;;;8.90;51.20;;;;;;5065476;28;20055;-84
2023/04/22 02:03:31;;;;;;;20.92;12.40;;;9.00;58.30;;;;;;5040484;28;20482;-84
2023/04/22 02:05:57;;;;;;;20.48;12.65;;;8.70;67.10;;;;;;5069065;28;20040;-85
2023/04/22 02:08:22;;;;;;;22.15;12.70;;;9.00;67.40;;;;;;5059521;28;20091;-86
2023/04/22 02:10:48;;;;;;;19.95;12.48;;;9.10;64.10;;;;;;5056185;28;20499;-85
2023/04/22 02:13:14;;;;;;;23.25;13.20;;;8.70;62.40;;;;;;5055148;28;20044;-84
2023/04/22 02:15:40;;;;;;;23.48;13.63;;;8.70;65.40;;;;;;5053479;28;20052;-84
2023/04/22 02:18:06;;;;;;;20.85;13.48;;;8.70;70.90;;;;;;5063509;28;20048;-84
2023/04/22 02:20:32;;;;;;;23.75;14.10;;;8.80;73.30;;;;;;5071455;28;20058;-83
2023/04/22 02:22:58;;;;;;;23.00;13.13;;;8.30;70.20;;;;;;5039085;28;20047;-85
2023/04/22 02:25:25;;;;;;;21.42;12.77;;;8.70;67.80;;;;;;5054315;28;20044;-86
2023/04/22 02:27:51;;;;;;;22.02;13.43;;;8.60;66.00;;;;;;5074957;28;20066;-84
2023/04/22 02:30:17;;;;;;;18.85;12.68;;;8.30;64.50;;;;;;5076600;28;20493;-83
2023/04/22 02:32:43;;;;;;;20.50;12.30;;;8.10;64.80;;;;;;5061474;28;20127;-83
2023/04/22 02:35:10;;;;;;;18.98;12.00;;;8.20;68.50;;;;;;5071232;28;20602;-83
2023/04/22 02:37:36;;;;;;;22.80;13.02;;;8.30;69.70;;;;;;5075921;28;20067;-83
2023/04/22 02:40:03;;;;;;;23.08;13.25;;;8.10;67.80;;;;;;5076975;28;20091;-83
2023/04/22 02:42:28;;;;;;;17.52;11.30;;;8.10;69.20;;;;;;5059407;28;20112;-88
2023/04/22 02:44:54;;;;;;;17.80;12.15;;;8.10;69.50;;;;;;5059866;28;20052;-84
2023/04/22 02:47:21;;;;;;;18.15;11.85;;;7.90;74.20;;;;;;5059640;28;20123;-84
2023/04/22 02:49:46;;;;;;;17.35;10.73;;;8.30;76.90;;;;;;5066361;28;20045;-84
2023/04/22 02:52:12;;;;;;;18.33;10.48;;;8.00;79.50;;;;;;5072943;28;20503;-83
2023/04/22 02:54:38;;;;;;;15.35;10.00;;;7.70;82.90;;;;;;5059963;28;20079;-84
2023/04/22 02:57:03;;;;;;;12.30;8.18;;;8.00;83.80;;;;;;5089548;28;20044;-84
2023/04/22 02:59:30;;;;;;;23.75;9.13;;;7.90;86.10;;;;;;5059886;28;20051;-84
2023/04/22 03:01:56;;;;;;;17.65;7.82;;;7.80;88.80;;;;;;5059908;28;20048;-83
2023/04/22 03:04:24;;;;;;;15.05;8.30;;;8.00;89.50;;;;;;5059291;28;20104;-83
2023/04/22 03:06:50;;;;;;;20.77;8.45;;;7.90;89.30;;;;;;5065560;28;20095;-83
2023/04/22 03:09:16;;;;;;;11.43;7.65;;;7.80;86.70;;;;;;5076003;28;20047;-84
2023/04/22 03:11:42;;;;;;;11.73;7.90;;;7.70;82.50;;;;;;5073782;28;20160;-83
2023/04/22 03:14:08;;;;;;;10.18;7.68;;;7.60;79.80;;;;;;5059369;28;20074;-84
2023/04/22 03:16:34;;;;;;;10.77;8.02;;;7.80;81.00;;;;;;5037458;28;20141;-88
2023/04/22 03:18:59;;;;;;;13.65;8.52;;;7.30;81.50;;;;;;5069886;28;20127;-84
2023/04/22 03:21:25;;;;;;;12.98;8.80;;;7.20;82.60;;;;;;5075985;28;20048;-86
2023/04/22 03:23:51;;;;;;;11.82;8.65;;;7.30;83.20;;;;;;5059126;28;20086;-84
2023/04/22 03:26:17;;;;;;;11.95;8.40;;;7.20;84.00;;;;;;5036321;28;20048;-83
2023/04/22 03:28:42;;;;;;;11.55;8.77;;;6.90;83.50;;;;;;5052744;28;20470;-84
2023/04/22 03:31:08;;;;;;;12.80;9.45;;;7.30;85.70;;;;;;5061186;28;20485;-85
2023/04/22 03:33:34;;;;;;;12.68;8.90;;;6.80;88.80;;;;;;5058173;28;20059;-90
2023/04/22 03:35:59;;;;;;;13.10;8.75;;;7.30;91.80;;;;;;5039638;28;20169;-84
2023/04/22 03:38:26;;;;;;;11.73;8.93;;;7.10;91.90;;;;;;5052078;28;20228;-85
2023/04/22 03:40:51;;;;;;;10.52;7.95;;;6.80;91.40;;;;;;5075834;28;20574;-83
2023/04/22 03:43:17;;;;;;;15.45;8.85;;;7.10;92.50;;;;;;5058168;28;20083;-85
2023/04/22 03:45:43;;;;;;;11.60;8.07;;;7.10;93.90;;;;;;5062616;28;20494;-84
2023/04/22 03:48:09;;;;;;;9.85;7.32;;;7.00;95.20;;;;;;5075194;28;20128;-84
2023/04/22 03:50:35;;;;;;;9.25;7.07;;;7.00;95.40;;;;;;5047214;28;20447;-84
2023/04/22 03:53:00;;;;;;;8.77;6.75;;;7.50;95.30;;;;;;5060713;28;20053;-84
2023/04/22 03:55:26;;;;;;;9.25;6.93;;;6.90;95.00;;;;;;5063896;28;20481;-83
2023/04/22 03:57:52;;;;;;;10.10;7.47;;;6.80;94.40;;;;;;5058286;28;20101;-83
2023/04/22 04:00:17;;;;;;;10.48;7.00;;;6.90;94.00;;;;;;5075543;28;20044;-84
2023/04/22 04:02:43;;;;;;;8.75;6.80;;;6.70;94.20;;;;;;5058058;28;20058;-83
2023/04/22 04:05:10;;;;;;;11.57;7.63;;;6.80;94.30;;;;;;5052873;28;20048;-85
2023/04/22 04:07:36;;;;;;;9.63;7.47;;;6.80;94.40;;;;;;5055468;28;20460;-83
2023/04/22 04:10:02;;;;;;;10.57;7.80;;;7.00;94.10;;;;;;5069693;28;20048;-83
2023/04/22 04:12:28;;;;;;;10.52;7.63;;;7.00;94.00;;;;;;5075605;28;20447;-85
2023/04/22 04:14:54;;;;;;;12.85;9.13;;;6.70;93.90;;;;;;5058344;28;20044;-84
2023/04/22 04:17:20;;;;;;;12.25;8.07;;;6.60;94.00;;;;;;5057647;28;20040;-83
2023/04/22 04:19:46;;;;;;;11.05;8.60;;;6.80;93.10;;;;;;5057618;28;20131;-84
2023/04/22 04:22:12;;;;;;;10.98;8.30;;;6.70;92.10;;;;;;5057923;28;20144;-83
2023/04/22 04:24:40;;;;;;;10.18;7.93;;;6.70;91.70;;;;;;5048715;28;20052;-85
2023/04/22 04:27:07;;;;;;;13.30;8.80;;;6.60;92.30;;;;;;5074358;28;20044;-83
2023/04/22 04:29:34;;;;;;;21.33;13.35;;;6.60;93.30;;;;;;5055168;28;20063;-84
2023/04/22 04:32:00;;;;;;;20.67;13.23;;;6.40;94.50;;;;;;5027732;28;20405;-83
2023/04/22 04:34:26;;;;;;;23.20;14.02;;;6.60;96.70;;;;;;5078007;28;20051;-84
2023/04/22 04:36:52;;;;;;;25.50;14.73;;;6.70;98.70;;;;;;5050918;28;20560;-84
2023/04/22 04:39:18;;;;;;;25.30;14.40;;;6.90;99.90;;;;;;5074877;28;20036;-83
2023/04/22 04:41:44;;;;;;;23.38;14.32;;;6.70;99.90;;;;;;5074408;28;20082;-86
2023/04/22 04:44:10;;;;;;;29.25;14.30;;;6.30;99.90;;;;;;5057068;28;20055;-84
2023/04/22 04:46:36;;;;;;;27.40;14.52;;;6.80;99.90;;;;;;5058317;28;20074;-84
2023/04/22 04:49:03;;;;;;;29.65;14.93;;;6.60;99.90;;;;;;5056900;28;20134;-83
2023/04/22 04:51:31;;;;;;;27.23;14.77;;;6.90;99.90;;;;;;5055483;28;20459;-84
2023/04/22 04:53:57;;;;;;;25.88;14.73;;;6.90;99.90;;;;;;5077499;28;20109;-84
2023/04/22 04:56:23;;;;;;;25.38;14.90;;;6.90;99.90;;;;;;5061472;28;20162;-83
2023/04/22 04:58:48;;;;;;;28.25;15.10;;;7.00;99.90;;;;;;5066464;28;20155;-86
2023/04/22 05:01:14;;;;;;;30.10;15.45;;;7.10;99.90;;;;;;5057640;28;20048;-83
2023/04/22 05:03:40;;;;;;;32.00;16.55;;;7.10;99.90;;;;;;5050456;28;20040;-83
2023/04/22 05:06:06;;;;;;;28.48;15.52;;;7.20;99.90;;;;;;5057240;28;20132;-84
2023/04/22 05:08:32;;;;;;;36.72;16.33;;;7.10;99.90;;;;;;5057582;28;20056;-83
2023/04/22 05:10:58;;;;;;;29.40;15.82;;;7.30;99.90;;;;;;5057654;28;20043;-85
2023/04/22 05:13:25;;;;;;;32.03;16.25;;;7.40;99.90;;;;;;5059554;28;20036;-84
2023/04/22 05:15:50;;;;;;;31.58;17.02;;;7.60;99.90;;;;;;5056805;28;20400;-87
2023/04/22 05:18:17;;;;;;;28.58;16.25;;;7.70;99.90;;;;;;5039616;28;20123;-84
2023/04/22 05:20:42;;;;;;;32.30;16.52;;;7.60;99.90;;;;;;5073063;28;20530;-83
2023/04/22 05:23:08;;;;;;;31.85;16.83;;;8.40;99.90;;;;;;5037079;28;20056;-84
2023/04/22 05:25:34;;;;;;;31.30;17.13;;;8.30;99.90;;;;;;5084781;28;20406;-84
2023/04/22 05:27:59;;;;;;;32.10;16.50;;;8.20;99.90;;;;;;5059718;28;20106;-84
2023/04/22 05:30:25;;;;;;;31.55;16.98;;;8.30;99.90;;;;;;5054699;28;20048;-84
2023/04/22 05:32:51;;;;;;;36.25;17.95;;;8.50;99.90;;;;;;5056832;28;20134;-86
2023/04/22 05:35:16;;;;;;;30.63;16.48;;;8.80;99.90;;;;;;5024401;28;20044;-83
2023/04/22 05:37:42;;;;;;;30.25;16.35;;;9.00;99.90;;;;;;5073808;28;20127;-84
2023/04/22 05:40:08;;;;;;;32.97;16.58;;;8.50;99.90;;;;;;5056557;28;20511;-85
2023/04/22 05:42:34;;;;;;;32.15;16.17;;;8.90;99.90;;;;;;5040603;28;20048;-85
2023/04/22 05:45:00;;;;;;;29.98;16.33;;;9.30;99.90;;;;;;5063524;28;20040;-83
2023/04/22 05:47:26;;;;;;;31.20;16.85;;;9.20;99.90;;;;;;5073185;28;20040;-84
2023/04/22 05:49:51;;;;;;;30.00;17.02;;;8.80;99.90;;;;;;5073681;28;21069;-83
2023/04/22 05:52:17;;;;;;;30.15;17.48;;;9.20;99.90;;;;;;5058796;28;20047;-83
2023/04/22 05:54:43;;;;;;;29.90;16.63;;;9.40;99.90;;;;;;5076974;28;20051;-85
2023/04/22 05:57:09;;;;;;;34.45;17.10;;;9.50;99.90;;;;;;5023112;28;20055;-84
2023/04/22 05:59:35;;;;;;;33.88;17.75;;;9.60;99.90;;;;;;5050044;28;20075;-83
2023/04/22 06:02:00;;;;;;;33.42;18.10;;;9.60;99.90;;;;;;5071018;28;20557;-84
2023/04/22 06:04:26;;;;;;;28.08;17.02;;;9.70;99.90;;;;;;5056168;28;20048;-83
2023/04/22 06:06:55;;;;;;;29.63;16.55;;;9.70;99.90;;;;;;5084518;28;20397;-83
2023/04/22 06:09:21;;;;;;;31.35;16.67;;;9.90;99.90;;;;;;5056762;28;20044;-83
2023/04/22 06:11:47;;;;;;;30.70;16.95;;;10.10;99.90;;;;;;5056069;28;20051;-84
2023/04/22 06:14:12;;;;;;;31.88;17.23;;;10.00;99.90;;;;;;5055912;28;20519;-83
2023/04/22 06:16:38;;;;;;;31.77;17.05;;;10.30;99.90;;;;;;5072696;28;20112;-84
2023/04/22 06:19:05;;;;;;;29.60;17.10;;;10.20;99.90;;;;;;5063445;28;20497;-83
2023/04/22 06:21:35;;;;;;;30.50;16.48;;;10.20;99.90;;;;;;5039482;28;20051;-83
2023/04/22 06:24:01;;;;;;;30.27;17.70;;;10.40;99.90;;;;;;5055957;28;20052;-83
2023/04/22 06:26:27;;;;;;;30.30;17.40;;;10.40;99.90;;;;;;5036459;28;20047;-83
2023/04/22 06:28:53;;;;;;;28.60;16.95;;;10.50;99.90;;;;;;5038955;28;20048;-84
2023/04/22 06:31:18;;;;;;;30.05;16.85;;;10.50;99.90;;;;;;5055986;28;20044;-83
2023/04/22 06:33:45;;;;;;;28.52;17.35;;;10.60;99.90;;;;;;5072821;28;20036;-84
2023/04/22 06:36:12;;;;;;;30.60;16.60;;;10.80;99.90;;;;;;5073076;28;20043;-83
2023/04/22 06:38:38;;;;;;;31.98;16.85;;;10.50;99.90;;;;;;5056476;28;20129;-83
2023/04/22 06:41:03;;;;;;;26.15;17.00;;;10.80;99.90;;;;;;5056004;28;20444;-84
2023/04/22 06:43:29;;;;;;;26.63;16.08;;;10.70;99.90;;;;;;5056842;28;20072;-82
2023/04/22 06:45:55;;;;;;;25.60;15.98;;;10.90;99.90;;;;;;5056163;28;20127;-83
2023/04/22 06:48:21;;;;;;;25.52;16.83;;;10.90;99.90;;;;;;5055996;28;20270;-83
2023/04/22 06:50:47;;;;;;;24.52;15.43;;;10.90;99.90;;;;;;5063897;28;20119;-83
2023/04/22 06:53:12;;;;;;;29.55;17.17;;;11.10;99.90;;;;;;5055731;28;20139;-83
2023/04/22 06:55:38;;;;;;;26.00;17.10;;;11.10;99.90;;;;;;5055875;28;20097;-84
2023/04/22 06:58:04;;;;;;;23.73;15.77;;;11.20;99.90;;;;;;5055914;28;20055;-83
2023/04/22 07:00:29;;;;;;;26.23;16.10;;;11.40;99.90;;;;;;5072861;28;20508;-82
2023/04/22 07:02:55;;;;;;;31.10;17.55;;;11.40;99.90;;;;;;5036140;28;20044;-83
2023/04/22 07:05:21;;;;;;;29.42;16.98;;;11.50;99.90;;;;;;5047096;28;20101;-82
2023/04/22 07:07:47;;;;;;;25.33;17.08;;;11.50;99.90;;;;;;5055818;28;20092;-83
2023/04/22 07:10:13;;;;;;;24.55;16.05;;;11.60;99.90;;;;;;5086524;28;20044;-82
2023/04/22 07:12:39;;;;;;;25.13;17.25;;;11.70;99.90;;;;;;5089923;28;20544;-83
2023/04/22 07:15:06;;;;;;;20.58;14.73;;;11.80;99.90;;;;;;5047500;28;20101;-85
2023/04/22 07:17:32;;;;;;;23.58;15.77;;;11.80;99.90;;;;;;5051561;28;20044;-83
2023/04/22 07:19:58;;;;;;;22.98;17.00;;;11.70;99.90;;;;;;5059498;28;20040;-83
2023/04/22 07:22:23;;;;;;;22.70;15.15;;;12.10;99.90;;;;;;5043001;28;20048;-83
2023/04/22 07:24:49;;;;;;;21.17;14.43;;;12.00;99.90;;;;;;5075857;28;20040;-84
2023/04/22 07:27:15;;;;;;;21.05;14.57;;;12.20;99.90;;;;;;5066269;28;20043;-83
2023/04/22 07:29:41;;;;;;;19.33;14.00;;;12.40;99.90;;;;;;5071895;28;20552;-83
2023/04/22 07:32:06;;;;;;;20.08;14.20;;;12.30;99.90;;;;;;5062932;28;20041;-86
2023/04/22 07:34:32;;;;;;;19.30;14.40;;;12.40;99.90;;;;;;5075802;28;20043;-83
2023/04/22 07:36:58;;;;;;;18.52;13.60;;;12.40;99.90;;;;;;5059456;28;20082;-84
2023/04/22 07:39:24;;;;;;;19.98;14.15;;;12.70;99.90;;;;;;5092431;28;20036;-83
2023/04/22 07:41:50;;;;;;;19.15;13.15;;;12.70;99.90;;;;;;5076294;28;20036;-82
2023/04/22 07:44:20;;;;;;;22.42;13.43;;;12.70;99.90;;;;;;5092488;28;20092;-84
2023/04/22 07:46:46;;;;;;;17.23;13.13;;;12.90;99.90;;;;;;5075560;28;20047;-83
2023/04/22 07:49:12;;;;;;;20.27;14.23;;;12.90;99.90;;;;;;5080461;28;20043;-82
2023/04/22 07:51:39;;;;;;;21.83;13.20;;;13.20;99.90;;;;;;5062042;28;20039;-83
2023/04/22 07:54:05;;;;;;;19.00;13.50;;;13.20;99.90;;;;;;5055450;28;20055;-84
2023/04/22 07:56:31;;;;;;;18.65;13.05;;;13.40;99.90;;;;;;5054955;28;20048;-83
2023/04/22 07:58:57;;;;;;;17.23;12.90;;;13.40;99.90;;;;;;5027354;28;20052;-82
2023/04/22 08:01:23;;;;;;;17.00;13.27;;;13.50;99.90;;;;;;5064764;28;20044;-83
2023/04/22 08:03:48;;;;;;;19.75;13.30;;;13.70;99.90;;;;;;5064353;28;20048;-83
2023/04/22 08:06:14;;;;;;;18.73;12.93;;;13.60;99.90;;;;;;5037708;28;20051;-85
2023/04/22 08:08:40;;;;;;;19.35;12.55;;;13.80;99.90;;;;;;5054294;28;20052;-83
2023/04/22 08:11:06;;;;;;;17.08;12.75;;;14.10;96.60;;;;;;5061464;28;20517;-83
2023/04/22 08:13:32;;;;;;;15.68;11.95;;;14.20;93.90;;;;;;5068056;28;20060;-83
2023/04/22 08:16:01;;;;;;;16.48;11.05;;;14.30;76.90;;;;;;5053359;28;20098;-83
2023/04/22 08:18:27;;;;;;;16.27;11.68;;;14.60;60.70;;;;;;5070276;28;20072;-84
2023/04/22 08:20:52;;;;;;;17.38;12.18;;;14.40;41.30;;;;;;5054615;28;20510;-84
2023/04/22 08:23:18;;;;;;;15.25;10.95;;;14.60;49.90;;;;;;5049048;28;20048;-83
2023/04/22 08:25:44;;;;;;;15.48;11.65;;;14.70;52.50;;;;;;5035866;28;20543;-83
2023/04/22 08:28:10;;;;;;;13.80;10.10;;;14.70;49.30;;;;;;5036435;28;20048;-83
2023/04/22 08:30:36;;;;;;;12.50;10.02;;;14.90;22.80;;;;;;5069224;28;20060;-83
2023/04/22 08:33:02;;;;;;;12.00;9.50;;;14.90;1.00;;;;;;5053211;28;20035;-83
2023/04/22 08:35:27;;;;;;;12.75;9.77;;;15.00;1.00;;;;;;5069432;28;20053;-83
2023/04/22 08:37:53;;;;;;;12.20;10.02;;;14.90;1.00;;;;;;5065308;28;20084;-85
2023/04/22 08:40:19;;;;;;;11.40;9.20;;;14.90;1.00;;;;;;5066203;28;20067;-84
2023/04/22 08:42:47;;;;;;;11.88;9.30;;;14.90;1.00;;;;;;5053130;28;20090;-83
2023/04/22 08:45:13;;;;;;;12.32;9.15;;;15.20;1.00;;;;;;5045621;28;20059;-84
2023/04/22 08:47:40;;;;;;;11.70;9.05;;;15.40;1.00;;;;;;5052321;28;20041;-86
2023/04/22 08:50:08;;;;;;;10.73;8.10;;;15.30;1.00;;;;;;5053373;28;20075;-83
2023/04/22 08:52:35;;;;;;;10.98;8.13;;;15.30;99.90;;;;;;5080941;28;20056;-83
2023/04/22 08:55:01;;;;;;;10.75;8.52;;;15.40;1.00;;;;;;5054285;28;20059;-83
2023/04/22 08:57:28;;;;;;;11.73;8.82;;;15.60;1.00;;;;;;5063532;28;20041;-82
2023/04/22 08:59:55;;;;;;;10.63;8.52;;;15.60;1.00;;;;;;5065092;28;20126;-83
2023/04/22 09:02:23;;;;;;;10.25;8.57;;;15.90;1.00;;;;;;5061759;28;20080;-87
2023/04/22 09:04:51;;;;;;;11.40;8.30;;;16.00;1.00;;;;;;5035732;28;20551;-87
2023/04/22 09:07:26;;;;;;;11.68;9.38;;;16.70;1.00;;;;;;5062314;28;20409;-83
2023/04/22 09:09:54;;;;;;;11.53;8.80;;;17.10;99.90;;;;;;5045620;28;20394;-83
2023/04/22 09:12:20;;;;;;;11.23;8.57;;;18.00;99.90;;;;;;5049447;28;20375;-83
2023/04/22 09:14:46;;;;;;;8.60;7.65;;;19.10;99.90;;;;;;5046316;28;20052;-85
2023/04/22 09:17:17;;;;;;;9.30;8.13;;;20.10;1.00;;;;;;5070953;28;20053;-83
2023/04/22 09:19:55;;;;;;;11.43;8.95;;;20.70;99.90;;;;;;5032684;28;20604;-83
2023/04/22 09:22:21;;;;;;;10.48;7.50;;;21.10;99.90;;;;;;5065540;28;20049;-84
2023/04/22 09:24:50;;;;;;;8.88;7.30;;;21.50;99.90;;;;;;5057154;28;20055;-82
2023/04/22 09:27:17;;;;;;;7.82;6.32;;;21.80;99.90;;;;;;5048483;28;20044;-83
2023/04/22 09:29:50;;;;;;;8.93;6.95;;;22.40;99.90;;;;;;5061338;28;20155;-82
2023/04/22 09:32:16;;;;;;;9.25;6.30;;;23.10;99.90;;;;;;5053039;28;20135;-84
2023/04/22 09:34:53;;;;;;;7.15;6.10;;;23.60;99.90;;;;;;5069227;28;20568;-86
2023/04/22 09:37:26;;;;;;;7.80;6.63;;;24.10;14.50;;;;;;5068981;28;20489;-84
2023/04/22 09:39:53;;;;;;;6.20;5.60;;;24.50;1.00;;;;;;5076051;28;20052;-84
2023/04/22 09:42:20;;;;;;;7.18;6.30;;;25.00;1.00;;;;;;5082489;28;20075;-83
2023/04/22 09:44:47;;;;;;;6.97;6.15;;;25.60;1.00;;;;;;5069066;28;20056;-88
2023/04/22 09:47:13;;;;;;;7.47;6.28;;;25.00;1.00;;;;;;5050287;28;20144;-83
2023/04/22 09:49:44;;;;;;;6.13;5.53;;;24.50;1.00;;;;;;5046583;28;20055;-85
2023/04/22 09:52:10;;;;;;;6.20;5.60;;;23.90;1.00;;;;;;5053505;28;20053;-82
2023/04/22 09:54:36;;;;;;;6.10;5.47;;;23.30;1.00;;;;;;5057163;28;20074;-83
2023/04/22 09:57:03;;;;;;;7.18;5.60;;;22.90;1.00;;;;;;5066835;28;20052;-83
2023/04/22 09:59:29;;;;;;;6.95;5.80;;;22.60;1.00;;;;;;5042547;28;20048;-88
2023/04/22 10:01:59;;;;;;;7.35;5.80;;;23.00;1.00;;;;;;5079970;28;20559;-83
2023/04/22 10:04:25;;;;;;;6.13;4.95;;;23.10;1.00;;;;;;5042222;28;20043;-82
2023/04/22 10:06:52;;;;;;;6.10;5.03;;;23.30;1.00;;;;;;5072639;28;20052;-83
2023/04/22 10:09:19;;;;;;;5.25;4.60;;;23.50;1.00;;;;;;5065123;28;20079;-83
2023/04/22 10:11:46;;;;;;;6.10;5.40;;;24.00;1.00;;;;;;5066455;28;20040;-83
2023/04/22 10:14:15;;;;;;;6.10;5.15;;;24.50;1.00;;;;;;5053488;28;20056;-84
2023/04/22 10:16:44;;;;;;;5.05;4.55;;;24.50;1.00;;;;;;5068170;28;20047;-83
2023/04/22 10:19:15;;;;;;;4.78;4.15;;;24.40;1.00;;;;;;5055009;28;20045;-84
2023/04/22 10:21:43;;;;;;;6.32;4.57;;;24.50;1.00;;;;;;5071209;28;20182;-83
2023/04/22 10:24:15;;;;;;;6.30;5.20;;;24.80;1.00;;;;;;5063759;28;20047;-84
2023/04/22 10:26:58;;;;;;;5.10;4.55;;;25.30;1.00;;;;;;5071535;28;20526;-83
2023/04/22 10:29:25;;;;;;;6.07;5.10;;;25.40;1.00;;;;;;5047452;28;20048;-84
2023/04/22 10:32:03;;;;;;;6.50;5.00;;;25.60;1.00;;;;;;5071740;28;20044;-82
2023/04/22 10:34:31;;;;;;;5.95;5.32;;;26.00;1.00;;;;;;5063923;28;20049;-83
2023/04/22 10:37:11;;;;;;;5.70;5.18;;;26.20;1.00;;;;;;5065933;28;20618;-83
2023/04/22 10:39:38;;;;;;;6.60;4.68;;;26.40;1.00;;;;;;5055185;28;20109;-84
2023/04/22 10:42:14;;;;;;;5.28;4.00;;;26.20;1.00;;;;;;5055129;28;20131;-84
2023/04/22 10:45:02;;;;;;;4.60;4.20;;;26.20;1.00;;;;;;5067018;28;20051;-83
2023/04/22 10:47:29;;;;;;;5.68;4.25;;;26.10;1.00;;;;;;5077875;28;20044;-84
2023/04/22 10:50:11;;;;;;;5.55;4.22;;;25.80;1.00;;;;;;5059040;28;20052;-83
2023/04/22 10:52:37;;;;;;;6.07;4.38;;;25.60;1.00;;;;;;5069905;28;20048;-88
2023/04/22 10:55:03;;;;;;;4.82;4.32;;;25.90;1.00;;;;;;5093968;28;20051;-84
2023/04/22 10:57:46;;;;;;;4.32;3.92;;;26.10;1.00;;;;;;5079046;28;20040;-84
2023/04/22 11:00:20;;;;;;;4.47;3.25;;;26.30;1.00;;;;;;5056029;28;20049;-84
2023/04/22 11:02:49;;;;;;;7.97;3.63;;;26.50;1.00;;;;;;5061695;28;20048;-84
2023/04/22 11:05:26;;;;;;;7.43;3.90;;;26.70;1.00;;;;;;5075117;28;20055;-84
2023/04/22 11:08:00;;;;;;;3.90;3.50;;;26.90;1.00;;;;;;5074672;28;20196;-84
2023/04/22 11:10:39;;;;;;;3.92;3.40;;;27.30;1.00;;;;;;5088054;28;20052;-84
2023/04/22 11:13:10;;;;;;;4.15;3.40;;;28.10;1.00;;;;;;5075150;28;20051;-83
2023/04/22 11:15:38;;;;;;;4.25;3.42;;;28.40;1.00;;;;;;5087288;28;20481;-83
2023/04/22 11:18:09;;;;;;;3.95;3.30;;;28.70;1.00;;;;;;5083149;28;20056;-85
2023/04/22 11:20:35;;;;;;;4.68;3.53;;;29.20;1.00;;;;;;5058707;28;20047;-86
2023/04/22 11:23:02;;;;;;;3.95;3.55;;;29.10;1.00;;;;;;5070089;28;20101;-84
2023/04/22 11:25:27;;;;;;;5.05;3.85;;;29.80;1.00;;;;;;5074403;28;20047;-84
2023/04/22 11:27:55;;;;;;;4.82;3.97;;;30.20;1.00;;;;;;5074443;28;20044;-84
2023/04/22 11:30:24;;;;;;;5.35;3.95;;;30.30;1.00;;;;;;5057879;28;20105;-83
2023/04/22 11:32:58;;;;;;;5.40;4.25;;;30.30;1.00;;;;;;5054702;28;20037;-84
2023/04/22 11:35:32;;;;;;;4.38;3.97;;;30.70;1.00;;;;;;5054431;28;20071;-83
2023/04/22 11:38:03;;;;;;;4.78;3.95;;;30.80;1.00;;;;;;5081552;28;20051;-85
2023/04/22 11:40:34;;;;;;;5.47;3.92;;;30.80;1.00;;;;;;5074491;28;20123;-85
2023/04/22 11:43:02;;;;;;;4.78;4.32;;;31.30;1.00;;;;;;5067686;28;20045;-84
2023/04/22 11:45:29;;;;;;;5.18;4.05;;;31.50;1.00;;;;;;5081343;28;20043;-84
2023/04/22 11:47:55;;;;;;;5.78;4.13;;;30.80;1.00;;;;;;5068239;28;20103;-85
2023/04/22 11:50:26;;;;;;;5.18;4.25;;;31.00;1.00;;;;;;5068577;28;20127;-84
2023/04/22 11:52:58;;;;;;;4.60;4.05;;;31.10;1.00;;;;;;5057256;28;20473;-85
2023/04/22 11:55:31;;;;;;;4.28;3.88;;;31.30;1.00;;;;;;5074934;28;20055;-85
2023/04/22 11:58:14;;;;;;;4.22;3.80;;;31.40;1.00;;;;;;5076018;28;20150;-83
2023/04/22 12:00:51;;;;;;;5.60;3.72;;;31.70;1.00;;;;;;5076932;28;20573;-84
2023/04/22 12:03:18;;;;;;;4.55;3.65;;;32.20;1.00;;;;;;5074533;28;20051;-84
2023/04/22 12:05:54;;;;;;;5.10;4.30;;;31.90;1.00;;;;;;5067592;28;20036;-84
2023/04/22 12:08:32;;;;;;;5.65;4.10;;;31.40;1.00;;;;;;5057477;28;20378;-84
2023/04/22 12:11:03;;;;;;;4.75;4.00;;;30.70;1.00;;;;;;5057314;28;20090;-83
2023/04/22 12:13:31;;;;;;;6.22;4.28;;;29.20;1.00;;;;;;5057597;28;20080;-83
2023/04/22 12:16:08;;;;;;;4.90;4.43;;;27.70;1.00;;;;;;5047966;28;20055;-84
2023/04/22 12:18:36;;;;;;;6.28;4.80;;;26.90;1.00;;;;;;5079605;28;20431;-83
2023/04/22 12:21:11;;;;;;;6.43;5.18;;;26.10;1.00;;;;;;5051931;28;20060;-83
2023/04/22 12:23:42;;;;;;;6.72;5.60;;;25.50;1.00;;;;;;5065593;28;20145;-83
2023/04/22 12:26:08;;;;;;;5.85;5.18;;;25.20;1.00;;;;;;5056751;28;20079;-84
2023/04/22 12:28:35;;;;;;;6.07;5.35;;;25.10;1.00;;;;;;5057967;28;20117;-84
2023/04/22 12:31:01;;;;;;;5.22;4.72;;;24.80;1.00;;;;;;5056324;28;20566;-83
2023/04/22 12:33:27;;;;;;;6.35;4.60;;;25.00;1.00;;;;;;5066201;28;20075;-83
2023/04/22 12:35:52;;;;;;;6.75;5.30;;;25.50;1.00;;;;;;5061941;28;20056;-85
2023/04/22 12:38:18;;;;;;;9.02;5.13;;;26.90;1.00;;;;;;5037545;28;20401;-85
2023/04/22 12:40:44;;;;;;;5.38;4.75;;;28.10;1.00;;;;;;5060455;28;20044;-83
2023/04/22 12:43:11;;;;;;;5.88;4.90;;;28.50;1.00;;;;;;5072576;28;20044;-84